createdAt,value
2023-05-09T00:00:38.500Z,9.08
2023-05-09T00:01:38.401Z,9.08
2023-05-09T00:02:38.353Z,9.03
2023-05-09T00:03:38.295Z,8.94
2023-05-09T00:04:38.372Z,8.92
2023-05-09T00:05:38.305Z,8.91
2023-05-09T00:06:38.331Z,8.91
2023-05-09T00:07:38.314Z,8.82
2023-05-09T00:08:38.263Z,8.76
2023-05-09T00:09:38.226Z,8.73
2023-05-09T00:10:38.263Z,8.69
2023-05-09T00:11:38.227Z,8.64
2023-05-09T00:12:38.198Z,8.60
2023-05-09T00:13:38.198Z,8.56
2023-05-09T00:14:38.182Z,8.52
2023-05-09T00:15:38.216Z,8.53
2023-05-09T00:16:38.213Z,8.51
2023-05-09T00:17:38.234Z,8.51
2023-05-09T00:18:38.136Z,8.51
2023-05-09T00:19:38.110Z,8.52
2023-05-09T00:20:38.148Z,8.56
2023-05-09T00:21:38.094Z,8.53
2023-05-09T00:22:38.103Z,8.53
2023-05-09T00:23:38.077Z,8.55
2023-05-09T00:24:38.101Z,8.52
2023-05-09T00:25:38.091Z,8.52
2023-05-09T00:26:38.055Z,8.55
2023-05-09T00:27:38.038Z,8.58
2023-05-09T00:28:38.029Z,8.63
2023-05-09T00:29:38.063Z,8.64
2023-05-09T00:30:38.025Z,8.67
2023-05-09T00:31:38.029Z,8.64
2023-05-09T00:32:38.021Z,8.61
2023-05-09T00:33:37.994Z,8.52
2023-05-09T00:34:37.996Z,8.42
2023-05-09T00:35:37.959Z,8.36
2023-05-09T00:36:37.966Z,8.36
2023-05-09T00:37:37.926Z,8.28
2023-05-09T00:38:38.355Z,8.27
2023-05-09T00:39:37.986Z,8.20
2023-05-09T00:40:37.914Z,8.18
2023-05-09T00:41:37.904Z,8.15
2023-05-09T00:42:37.901Z,8.13
2023-05-09T00:43:38.045Z,8.09
2023-05-09T00:44:37.865Z,8.10
2023-05-09T00:45:37.866Z,8.09
2023-05-09T00:46:38.199Z,8.09
2023-05-09T00:47:37.926Z,8.10
2023-05-09T00:48:37.965Z,8.09
2023-05-09T00:49:37.857Z,8.09
2023-05-09T00:50:37.818Z,8.09
2023-05-09T00:51:37.799Z,8.13
2023-05-09T00:52:37.835Z,8.13
2023-05-09T00:53:37.765Z,8.16
2023-05-09T00:54:37.859Z,8.18
2023-05-09T00:55:37.734Z,8.13
2023-05-09T00:56:37.747Z,8.09
2023-05-09T00:57:37.736Z,8.06
2023-05-09T00:58:37.714Z,8.05
2023-05-09T00:59:37.694Z,8.00
2023-05-09T01:00:37.680Z,7.95
2023-05-09T01:01:37.769Z,7.95
2023-05-09T01:02:37.726Z,7.93
2023-05-09T01:03:37.752Z,7.90
2023-05-09T01:04:37.655Z,7.93
2023-05-09T01:05:37.653Z,7.97
2023-05-09T01:06:37.646Z,8.01
2023-05-09T01:07:37.620Z,8.01
2023-05-09T01:08:37.619Z,8.03
2023-05-09T01:09:37.591Z,8.00
2023-05-09T01:10:37.586Z,7.95
2023-05-09T01:11:37.610Z,7.88
2023-05-09T01:12:37.587Z,7.91
2023-05-09T01:13:37.586Z,7.83
2023-05-09T01:14:37.584Z,7.77
2023-05-09T01:15:37.576Z,7.76
2023-05-09T01:16:37.622Z,7.73
2023-05-09T01:17:37.543Z,7.70
2023-05-09T01:18:37.549Z,7.72
2023-05-09T01:19:37.498Z,7.67
2023-05-09T01:20:37.546Z,7.66
2023-05-09T01:21:37.460Z,7.69
2023-05-09T01:22:37.466Z,7.70
2023-05-09T01:23:37.478Z,7.76
2023-05-09T01:24:37.443Z,7.82
2023-05-09T01:25:37.482Z,7.85
2023-05-09T01:26:37.451Z,7.90
2023-05-09T01:27:37.432Z,7.94
2023-05-09T01:28:37.404Z,7.94
2023-05-09T01:29:37.388Z,7.95
2023-05-09T01:30:37.403Z,7.94
2023-05-09T01:31:37.440Z,7.95
2023-05-09T01:32:37.429Z,7.97
2023-05-09T01:33:37.353Z,7.98
2023-05-09T01:34:37.345Z,8.01
2023-05-09T01:35:37.334Z,8.03
2023-05-09T01:36:37.314Z,8.03
2023-05-09T01:37:37.290Z,8.06
2023-05-09T01:38:37.294Z,8.06
2023-05-09T01:39:37.300Z,8.09
2023-05-09T01:40:37.294Z,8.09
2023-05-09T01:41:37.247Z,8.08
2023-05-09T01:42:37.323Z,8.00
2023-05-09T01:43:37.495Z,8.00
2023-05-09T01:44:37.378Z,8.01
2023-05-09T01:45:37.221Z,8.00
2023-05-09T01:46:37.264Z,8.06
2023-05-09T01:47:37.190Z,8.00
2023-05-09T01:48:37.218Z,7.94
2023-05-09T01:49:37.165Z,7.85
2023-05-09T01:50:37.173Z,7.85
2023-05-09T01:51:37.136Z,7.90
2023-05-09T01:52:37.199Z,7.91
2023-05-09T01:53:37.136Z,7.90
2023-05-09T01:54:37.135Z,7.85
2023-05-09T01:55:37.098Z,7.83
2023-05-09T01:56:37.095Z,7.85
2023-05-09T01:57:37.089Z,7.80
2023-05-09T01:58:37.097Z,7.80
2023-05-09T01:59:37.057Z,7.73
2023-05-09T02:00:37.116Z,7.67
2023-05-09T02:01:37.069Z,7.66
2023-05-09T02:02:37.117Z,7.69
2023-05-09T02:03:37.012Z,7.73
2023-05-09T02:04:37.013Z,7.72
2023-05-09T02:05:36.992Z,7.73
2023-05-09T02:06:37.003Z,7.72
2023-05-09T02:07:37.022Z,7.70
2023-05-09T02:08:36.967Z,7.70
2023-05-09T02:09:36.961Z,7.73
2023-05-09T02:10:36.963Z,7.69
2023-05-09T02:11:36.980Z,7.60
2023-05-09T02:12:36.962Z,7.57
2023-05-09T02:13:36.941Z,7.45
2023-05-09T02:14:36.913Z,7.40
2023-05-09T02:15:36.891Z,7.35
2023-05-09T02:16:37.294Z,7.29
2023-05-09T02:17:37.004Z,7.23
2023-05-09T02:18:36.858Z,7.20
2023-05-09T02:19:36.839Z,7.20
2023-05-09T02:20:36.845Z,7.18
2023-05-09T02:21:36.848Z,7.24
2023-05-09T02:22:36.828Z,7.25
2023-05-09T02:23:36.801Z,7.28
2023-05-09T02:24:36.796Z,7.28
2023-05-09T02:25:36.799Z,7.25
2023-05-09T02:26:36.823Z,7.25
2023-05-09T02:27:36.758Z,7.13
2023-05-09T02:28:36.803Z,7.07
2023-05-09T02:29:36.745Z,7.02
2023-05-09T02:30:36.760Z,6.99
2023-05-09T02:31:36.792Z,6.97
2023-05-09T02:32:36.742Z,6.96
2023-05-09T02:33:36.692Z,6.99
2023-05-09T02:34:36.692Z,7.03
2023-05-09T02:35:36.687Z,7.06
2023-05-09T02:36:36.659Z,7.11
2023-05-09T02:37:36.674Z,7.13
2023-05-09T02:38:36.664Z,7.14
2023-05-09T02:39:36.675Z,7.13
2023-05-09T02:40:36.684Z,7.06
2023-05-09T02:41:36.624Z,7.05
2023-05-09T02:42:36.619Z,7.00
2023-05-09T02:43:36.594Z,6.99
2023-05-09T02:44:36.630Z,6.93
2023-05-09T02:45:36.564Z,6.87
2023-05-09T02:46:36.569Z,6.89
2023-05-09T02:47:36.591Z,6.87
2023-05-09T02:48:36.560Z,6.88
2023-05-09T02:49:36.554Z,6.89
2023-05-09T02:50:36.524Z,6.87
2023-05-09T02:51:36.508Z,6.89
2023-05-09T02:52:36.524Z,6.93
2023-05-09T02:53:36.502Z,6.99
2023-05-09T02:54:36.489Z,7.03
2023-05-09T02:55:36.473Z,7.06
2023-05-09T02:56:36.420Z,7.11
2023-05-09T02:57:36.453Z,7.13
2023-05-09T02:58:36.458Z,7.15
2023-05-09T02:59:36.435Z,7.14
2023-05-09T03:00:36.449Z,7.18
2023-05-09T03:01:36.420Z,7.17
2023-05-09T03:02:36.447Z,7.21
2023-05-09T03:03:36.502Z,7.18
2023-05-09T03:04:36.304Z,7.20
2023-05-09T03:05:36.380Z,7.03
2023-05-09T03:06:36.351Z,6.95
2023-05-09T03:07:36.334Z,6.89
2023-05-09T03:08:36.334Z,6.88
2023-05-09T03:09:36.312Z,6.82
2023-05-09T03:10:36.311Z,6.77
2023-05-09T03:11:36.340Z,6.72
2023-05-09T03:12:36.327Z,6.64
2023-05-09T03:13:36.233Z,6.62
2023-05-09T03:14:36.211Z,6.57
2023-05-09T03:15:36.215Z,6.59
2023-05-09T03:16:36.184Z,6.59
2023-05-09T03:17:36.198Z,6.54
2023-05-09T03:18:36.164Z,6.52
2023-05-09T03:19:36.219Z,6.52
2023-05-09T03:20:36.148Z,6.49
2023-05-09T03:21:36.132Z,6.48
2023-05-09T03:22:36.137Z,6.54
2023-05-09T03:23:36.112Z,6.57
2023-05-09T03:24:36.107Z,6.62
2023-05-09T03:25:36.094Z,6.66
2023-05-09T03:26:36.099Z,6.72
2023-05-09T03:27:36.098Z,6.75
2023-05-09T03:28:36.051Z,6.75
2023-05-09T03:29:36.045Z,6.75
2023-05-09T03:30:36.072Z,6.81
2023-05-09T03:31:36.122Z,6.81
2023-05-09T03:32:36.034Z,6.87
2023-05-09T03:33:36.009Z,6.87
2023-05-09T03:34:36.001Z,6.89
2023-05-09T03:35:35.996Z,6.93
2023-05-09T03:36:35.993Z,6.93
2023-05-09T03:37:35.976Z,6.93
2023-05-09T03:38:35.949Z,6.95
2023-05-09T03:39:35.941Z,6.96
2023-05-09T03:40:35.963Z,6.95
2023-05-09T03:41:36.014Z,6.95
2023-05-09T03:42:35.912Z,6.96
2023-05-09T03:43:35.942Z,6.93
2023-05-09T03:44:35.893Z,6.95
2023-05-09T03:45:35.996Z,6.95
2023-05-09T03:46:35.957Z,6.96
2023-05-09T03:47:35.880Z,6.97
2023-05-09T03:48:35.870Z,6.96
2023-05-09T03:49:36.495Z,6.99
2023-05-09T03:50:35.856Z,6.99
2023-05-09T03:51:35.836Z,7.02
2023-05-09T03:52:35.827Z,7.02
2023-05-09T03:53:36.002Z,7.03
2023-05-09T03:54:36.534Z,7.02
2023-05-09T03:55:35.802Z,7.03
2023-05-09T03:56:36.486Z,7.03
2023-05-09T03:57:35.753Z,7.03
2023-05-09T03:58:36.410Z,7.06
2023-05-09T03:59:36.501Z,7.03
2023-05-09T04:00:35.718Z,7.06
2023-05-09T04:01:36.485Z,7.10
2023-05-09T04:02:35.892Z,7.06
2023-05-09T04:03:35.767Z,7.06
2023-05-09T04:04:36.084Z,7.11
2023-05-09T04:05:35.653Z,7.14
2023-05-09T04:06:35.656Z,7.14
2023-05-09T04:07:35.653Z,7.15
2023-05-09T04:08:35.641Z,7.18
2023-05-09T04:09:35.766Z,7.25
2023-05-09T04:10:35.657Z,7.33
2023-05-09T04:11:35.616Z,7.39
2023-05-09T04:12:35.580Z,7.38
2023-05-09T04:13:35.601Z,7.36
2023-05-09T04:14:35.565Z,7.36
2023-05-09T04:15:35.556Z,7.40
2023-05-09T04:16:35.597Z,7.42
2023-05-09T04:17:35.554Z,7.43
2023-05-09T04:18:35.520Z,7.45
2023-05-09T04:19:35.508Z,7.51
2023-05-09T04:20:35.506Z,7.53
2023-05-09T04:21:35.498Z,7.60
2023-05-09T04:22:35.578Z,7.66
2023-05-09T04:23:35.650Z,7.70
2023-05-09T04:24:35.459Z,7.75
2023-05-09T04:25:35.460Z,7.83
2023-05-09T04:26:35.431Z,7.90
2023-05-09T04:27:35.471Z,7.93
2023-05-09T04:28:35.452Z,8.01
2023-05-09T04:29:35.540Z,8.09
2023-05-09T04:30:35.441Z,8.15
2023-05-09T04:31:35.491Z,8.18
2023-05-09T04:32:35.396Z,8.28
2023-05-09T04:33:35.393Z,8.34
2023-05-09T04:34:35.365Z,8.44
2023-05-09T04:35:35.356Z,8.51
2023-05-09T04:36:35.361Z,8.56
2023-05-09T04:37:35.378Z,8.61
2023-05-09T04:38:35.376Z,8.69
2023-05-09T04:39:35.302Z,8.78
2023-05-09T04:40:35.277Z,8.84
2023-05-09T04:41:35.299Z,8.89
2023-05-09T04:42:35.286Z,8.94
2023-05-09T04:43:35.258Z,9.02
2023-05-09T04:44:35.252Z,9.06
2023-05-09T04:45:35.316Z,9.14
2023-05-09T04:46:35.313Z,9.26
2023-05-09T04:47:35.255Z,9.32
2023-05-09T04:48:35.203Z,9.44
2023-05-09T04:49:35.198Z,9.59
2023-05-09T04:50:35.327Z,9.68
2023-05-09T04:51:35.184Z,9.82
2023-05-09T04:52:35.170Z,9.94
2023-05-09T04:53:35.152Z,10.01
2023-05-09T04:54:35.135Z,10.13
2023-05-09T04:55:35.150Z,10.25
2023-05-09T04:56:35.136Z,10.34
2023-05-09T04:57:35.119Z,10.48
2023-05-09T04:58:35.113Z,10.60
2023-05-09T04:59:35.189Z,10.74
2023-05-09T05:00:35.130Z,10.87
2023-05-09T05:01:35.105Z,11.04
2023-05-09T05:02:35.133Z,11.12
2023-05-09T05:03:35.072Z,11.25
2023-05-09T05:04:35.076Z,11.37
2023-05-09T05:05:37.184Z,11.47
2023-05-09T05:06:35.038Z,11.62
2023-05-09T05:07:35.034Z,11.75
2023-05-09T05:08:34.991Z,11.90
2023-05-09T05:09:35.093Z,12.07
2023-05-09T05:10:34.971Z,12.24
2023-05-09T05:11:35.092Z,12.37
2023-05-09T05:12:34.937Z,12.53
2023-05-09T05:13:34.948Z,12.65
2023-05-09T05:14:35.212Z,12.80
2023-05-09T05:15:34.917Z,13.01
2023-05-09T05:16:35.018Z,13.18
2023-05-09T05:17:35.022Z,13.39
2023-05-09T05:18:34.929Z,13.57
2023-05-09T05:19:34.986Z,13.75
2023-05-09T05:20:34.892Z,13.89
2023-05-09T05:21:34.872Z,14.04
2023-05-09T05:22:34.850Z,14.15
2023-05-09T05:23:34.936Z,14.28
2023-05-09T05:24:34.811Z,14.36
2023-05-09T05:25:34.821Z,14.45
2023-05-09T05:26:34.823Z,14.54
2023-05-09T05:27:34.820Z,14.63
2023-05-09T05:28:34.809Z,14.68
2023-05-09T05:29:34.792Z,14.40
2023-05-09T05:30:34.755Z,14.36
2023-05-09T05:31:34.810Z,14.08
2023-05-09T05:32:34.839Z,14.32
2023-05-09T05:33:34.771Z,14.55
2023-05-09T05:34:34.740Z,14.81
2023-05-09T05:35:34.720Z,15.03
2023-05-09T05:36:34.722Z,15.31
2023-05-09T05:37:35.299Z,15.52
2023-05-09T05:38:35.501Z,15.68
2023-05-09T05:39:34.924Z,15.75
2023-05-09T05:40:35.415Z,15.73
2023-05-09T05:41:34.949Z,15.67
2023-05-09T05:42:34.917Z,15.42
2023-05-09T05:43:34.623Z,15.22
2023-05-09T05:44:35.405Z,15.10
2023-05-09T05:45:34.642Z,14.89
2023-05-09T05:46:34.594Z,14.73
2023-05-09T05:47:34.764Z,14.77
2023-05-09T05:48:34.582Z,15.09
2023-05-09T05:49:34.560Z,15.39
2023-05-09T05:50:34.528Z,15.83
2023-05-09T05:51:34.580Z,16.23
2023-05-09T05:52:34.510Z,16.50
2023-05-09T05:53:34.521Z,16.47
2023-05-09T05:54:34.499Z,16.23
2023-05-09T05:55:34.498Z,15.73
2023-05-09T05:56:34.474Z,15.28
2023-05-09T05:57:34.474Z,15.06
2023-05-09T05:58:34.448Z,14.86
2023-05-09T05:59:34.467Z,14.69
2023-05-09T06:00:34.462Z,14.58
2023-05-09T06:01:34.442Z,14.45
2023-05-09T06:02:34.517Z,14.36
2023-05-09T06:03:34.431Z,14.33
2023-05-09T06:04:34.388Z,14.30
2023-05-09T06:05:34.416Z,14.23
2023-05-09T06:06:34.363Z,14.17
2023-05-09T06:07:34.366Z,14.18
2023-05-09T06:08:34.339Z,14.28
2023-05-09T06:09:34.345Z,14.36
2023-05-09T06:10:34.350Z,14.36
2023-05-09T06:11:34.339Z,14.37
2023-05-09T06:12:34.312Z,14.55
2023-05-09T06:13:34.304Z,14.81
2023-05-09T06:14:34.283Z,14.89
2023-05-09T06:15:34.415Z,14.84
2023-05-09T06:16:34.298Z,14.77
2023-05-09T06:17:34.274Z,14.72
2023-05-09T06:18:34.247Z,14.58
2023-05-09T06:19:35.034Z,14.50
2023-05-09T06:20:34.232Z,14.47
2023-05-09T06:21:34.206Z,14.40
2023-05-09T06:22:35.174Z,14.28
2023-05-09T06:23:34.189Z,14.33
2023-05-09T06:24:36.225Z,14.30
2023-05-09T06:25:34.246Z,14.18
2023-05-09T06:26:34.155Z,14.18
2023-05-09T06:27:34.564Z,14.15
2023-05-09T06:28:35.041Z,14.23
2023-05-09T06:29:34.428Z,14.30
2023-05-09T06:30:34.953Z,14.35
2023-05-09T06:31:34.976Z,14.37
2023-05-09T06:32:34.093Z,14.28
2023-05-09T06:33:34.122Z,14.23
2023-05-09T06:34:34.076Z,14.28
2023-05-09T06:35:34.096Z,14.41
2023-05-09T06:36:34.054Z,14.58
2023-05-09T06:37:34.040Z,14.63
2023-05-09T06:38:34.035Z,14.62
2023-05-09T06:39:34.019Z,14.72
2023-05-09T06:40:34.031Z,14.89
2023-05-09T06:41:34.016Z,15.00
2023-05-09T06:42:34.003Z,15.15
2023-05-09T06:43:34.061Z,15.27
2023-05-09T06:44:33.985Z,15.37
2023-05-09T06:45:33.988Z,15.36
2023-05-09T06:46:33.951Z,15.43
2023-05-09T06:47:33.968Z,15.47
2023-05-09T06:48:33.939Z,15.36
2023-05-09T06:49:33.967Z,15.49
2023-05-09T06:50:33.890Z,15.59
2023-05-09T06:51:33.894Z,15.73
2023-05-09T06:52:33.928Z,15.83
2023-05-09T06:53:33.884Z,15.98
2023-05-09T06:55:33.871Z,16.17
2023-05-09T06:56:33.885Z,16.35
2023-05-09T06:57:33.857Z,16.54
2023-05-09T06:58:33.808Z,16.69
2023-05-09T06:59:33.811Z,16.90
2023-05-09T07:00:33.810Z,17.01
2023-05-09T07:01:33.801Z,17.15
2023-05-09T07:02:33.784Z,17.14
2023-05-09T07:03:33.757Z,17.26
2023-05-09T07:04:33.755Z,17.44
2023-05-09T07:05:33.789Z,17.80
2023-05-09T07:06:33.738Z,18.33
2023-05-09T07:07:33.718Z,18.90
2023-05-09T07:08:33.728Z,19.36
2023-05-09T07:09:33.698Z,19.48
2023-05-09T07:10:33.703Z,19.66
2023-05-09T07:11:33.681Z,19.91
2023-05-09T07:12:33.659Z,20.39
2023-05-09T07:13:33.674Z,20.85
2023-05-09T07:14:33.684Z,21.22
2023-05-09T07:15:41.351Z,21.58
2023-05-09T07:16:35.805Z,21.45
2023-05-09T07:17:33.652Z,21.75
2023-05-09T07:18:33.602Z,21.96
2023-05-09T07:19:33.611Z,21.73
2023-05-09T07:20:33.596Z,21.61
2023-05-09T07:21:33.575Z,22.14
2023-05-09T07:22:35.549Z,22.60
2023-05-09T07:23:33.544Z,22.47
2023-05-09T07:24:33.768Z,22.76
2023-05-09T07:25:33.759Z,23.02
2023-05-09T07:26:33.518Z,22.18
2023-05-09T07:27:33.530Z,21.50
2023-05-09T07:28:33.513Z,21.32
2023-05-09T07:29:33.507Z,21.21
2023-05-09T07:30:33.471Z,21.98
2023-05-09T07:31:35.281Z,22.57
2023-05-09T07:32:33.504Z,23.27
2023-05-09T07:33:33.446Z,23.61
2023-05-09T07:34:33.448Z,22.60
2023-05-09T07:35:33.440Z,22.73
2023-05-09T07:36:35.427Z,23.43
2023-05-09T07:37:33.541Z,23.50
2023-05-09T07:38:33.414Z,23.69
2023-05-09T07:39:33.414Z,24.03
2023-05-09T07:40:33.388Z,24.29
2023-05-09T07:41:33.404Z,24.81
2023-05-09T07:42:33.340Z,24.10
2023-05-09T07:43:33.339Z,23.17
2023-05-09T07:44:33.317Z,23.48
2023-05-09T07:45:33.349Z,23.18
2023-05-09T07:46:33.329Z,23.44
2023-05-09T07:47:33.365Z,22.32
2023-05-09T07:48:33.314Z,21.40
2023-05-09T07:49:33.269Z,20.56
2023-05-09T07:50:33.269Z,20.47
2023-05-09T07:51:33.232Z,20.36
2023-05-09T07:52:33.263Z,20.29
2023-05-09T07:53:33.244Z,20.37
2023-05-09T07:54:33.222Z,20.34
2023-05-09T07:55:33.205Z,20.48
2023-05-09T07:56:33.196Z,20.11
2023-05-09T07:57:33.245Z,19.91
2023-05-09T07:58:33.221Z,20.18
2023-05-09T07:59:33.159Z,20.74
2023-05-09T08:00:33.151Z,21.40
2023-05-09T08:01:33.169Z,22.39
2023-05-09T08:02:33.323Z,22.43
2023-05-09T08:03:33.182Z,22.65
2023-05-09T08:04:33.160Z,22.91
2023-05-09T08:05:33.107Z,23.80
2023-05-09T08:06:33.117Z,24.50
2023-05-09T08:07:33.072Z,24.98
2023-05-09T08:08:33.086Z,25.31
2023-05-09T08:09:33.049Z,25.36
2023-05-09T08:10:33.050Z,25.60
2023-05-09T08:11:33.056Z,25.28
2023-05-09T08:12:33.038Z,24.81
2023-05-09T08:13:33.004Z,25.06
2023-05-09T08:14:33.016Z,25.43
2023-05-09T08:15:32.998Z,25.46
2023-05-09T08:16:33.058Z,25.84
2023-05-09T08:17:33.016Z,24.66
2023-05-09T08:18:32.976Z,23.80
2023-05-09T08:19:32.945Z,23.93
2023-05-09T08:20:32.959Z,24.50
2023-05-09T08:21:32.948Z,24.85
2023-05-09T08:22:32.964Z,25.35
2023-05-09T08:23:32.926Z,25.44
2023-05-09T08:24:32.913Z,25.47
2023-05-09T08:25:32.912Z,25.11
2023-05-09T08:26:32.880Z,24.54
2023-05-09T08:27:32.907Z,24.24
2023-05-09T08:28:32.866Z,23.87
2023-05-09T08:29:32.864Z,23.34
2023-05-09T08:30:32.920Z,23.18
2023-05-09T08:31:32.906Z,22.84
2023-05-09T08:32:32.857Z,22.36
2023-05-09T08:33:32.800Z,22.41
2023-05-09T08:34:32.806Z,22.41
2023-05-09T08:35:32.800Z,22.39
2023-05-09T08:36:32.797Z,22.23
2023-05-09T08:37:32.752Z,22.00
2023-05-09T08:38:32.771Z,21.73
2023-05-09T08:39:32.762Z,21.70
2023-05-09T08:40:32.737Z,22.48
2023-05-09T08:41:32.773Z,23.68
2023-05-09T08:42:32.767Z,25.13
2023-05-09T08:43:32.682Z,25.77
2023-05-09T08:44:32.755Z,24.51
2023-05-09T08:45:32.950Z,24.17
2023-05-09T08:46:32.814Z,24.24
2023-05-09T08:47:32.951Z,24.14
2023-05-09T08:48:35.870Z,24.42
2023-05-09T08:49:32.645Z,24.26
2023-05-09T08:50:32.627Z,24.29
2023-05-09T08:51:32.656Z,24.16
2023-05-09T08:52:33.071Z,24.42
2023-05-09T08:53:32.620Z,24.74
2023-05-09T08:54:33.577Z,25.46
2023-05-09T08:55:32.571Z,25.85
2023-05-09T08:56:32.577Z,25.44
2023-05-09T08:57:32.551Z,24.77
2023-05-09T08:58:32.752Z,25.08
2023-05-09T08:59:32.577Z,25.13
2023-05-09T09:00:32.602Z,24.95
2023-05-09T09:01:32.524Z,24.47
2023-05-09T09:02:32.574Z,24.03
2023-05-09T09:03:32.494Z,23.62
2023-05-09T09:04:32.511Z,22.93
2023-05-09T09:05:41.440Z,22.57
2023-05-09T09:06:32.463Z,22.44
2023-05-09T09:07:32.779Z,22.44
2023-05-09T09:08:32.558Z,22.47
2023-05-09T09:09:32.418Z,22.66
2023-05-09T09:10:32.449Z,23.10
2023-05-09T09:11:32.394Z,23.95
2023-05-09T09:12:32.445Z,23.99
2023-05-09T09:13:32.439Z,24.70
2023-05-09T09:14:32.392Z,25.25
2023-05-09T09:15:32.365Z,25.93
2023-05-09T09:16:32.444Z,26.06
2023-05-09T09:17:32.394Z,25.95
2023-05-09T09:18:32.331Z,25.10
2023-05-09T09:19:32.325Z,24.26
2023-05-09T09:20:32.332Z,24.45
2023-05-09T09:21:32.335Z,24.53
2023-05-09T09:22:32.280Z,24.55
2023-05-09T09:23:32.290Z,24.70
2023-05-09T09:24:32.269Z,24.84
2023-05-09T09:25:32.246Z,24.74
2023-05-09T09:26:32.275Z,23.87
2023-05-09T09:27:32.240Z,23.27
2023-05-09T09:28:32.234Z,23.23
2023-05-09T09:29:32.200Z,23.56
2023-05-09T09:30:32.310Z,22.98
2023-05-09T09:31:32.247Z,22.94
2023-05-09T09:32:32.205Z,23.39
2023-05-09T09:33:32.174Z,22.99
2023-05-09T09:34:32.285Z,22.93
2023-05-09T09:35:32.581Z,22.90
2023-05-09T09:36:32.152Z,23.02
2023-05-09T09:37:32.120Z,23.48
2023-05-09T09:38:32.999Z,23.43
2023-05-09T09:39:32.101Z,23.93
2023-05-09T09:40:32.637Z,23.68
2023-05-09T09:41:32.347Z,23.69
2023-05-09T09:42:32.140Z,23.84
2023-05-09T09:43:32.088Z,23.88
2023-05-09T09:44:32.505Z,24.23
2023-05-09T09:45:32.050Z,24.08
2023-05-09T09:46:32.075Z,23.73
2023-05-09T09:47:32.054Z,23.62
2023-05-09T09:48:32.009Z,24.32
2023-05-09T09:49:32.046Z,24.91
2023-05-09T09:50:31.984Z,25.04
2023-05-09T09:51:31.978Z,24.85
2023-05-09T09:52:31.987Z,25.33
2023-05-09T09:53:31.990Z,25.70
2023-05-09T09:54:31.962Z,25.98
2023-05-09T09:55:31.938Z,25.36
2023-05-09T09:56:31.956Z,25.17
2023-05-09T09:57:31.935Z,25.44
2023-05-09T09:58:31.933Z,25.83
2023-05-09T09:59:31.893Z,26.71
2023-05-09T10:00:31.919Z,27.05
2023-05-09T10:01:31.952Z,27.36
2023-05-09T10:02:31.929Z,27.33
2023-05-09T10:03:31.883Z,26.53
2023-05-09T10:04:31.853Z,26.05
2023-05-09T10:05:31.875Z,25.98
2023-05-09T10:06:31.849Z,26.22
2023-05-09T10:07:31.824Z,26.48
2023-05-09T10:08:31.835Z,26.70
2023-05-09T10:09:31.786Z,26.85
2023-05-09T10:10:31.781Z,26.89
2023-05-09T10:11:31.756Z,26.77
2023-05-09T10:12:31.780Z,26.88
2023-05-09T10:13:31.786Z,26.88
2023-05-09T10:14:33.589Z,26.75
2023-05-09T10:15:41.458Z,27.03
2023-05-09T10:16:42.756Z,26.85
2023-05-09T10:17:31.955Z,26.59
2023-05-09T10:18:31.955Z,26.85
2023-05-09T10:19:31.682Z,27.10
2023-05-09T10:20:31.678Z,27.10
2023-05-09T10:21:31.689Z,26.81
2023-05-09T10:22:31.673Z,26.92
2023-05-09T10:23:31.634Z,27.08
2023-05-09T10:24:31.626Z,27.21
2023-05-09T10:25:31.640Z,27.47
2023-05-09T10:26:31.638Z,27.27
2023-05-09T10:27:31.629Z,27.60
2023-05-09T10:28:31.591Z,27.42
2023-05-09T10:29:31.582Z,27.70
2023-05-09T10:30:33.956Z,27.93
2023-05-09T10:31:32.084Z,27.45
2023-05-09T10:32:31.587Z,27.39
2023-05-09T10:33:31.608Z,27.27
2023-05-09T10:34:31.522Z,27.35
2023-05-09T10:35:31.570Z,27.21
2023-05-09T10:36:31.517Z,27.48
2023-05-09T10:37:31.665Z,26.85
2023-05-09T10:38:31.508Z,26.25
2023-05-09T10:39:31.539Z,25.62
2023-05-09T10:40:31.491Z,25.77
2023-05-09T10:41:31.476Z,25.58
2023-05-09T10:42:31.442Z,25.47
2023-05-09T10:43:32.198Z,24.74
2023-05-09T10:44:31.415Z,24.73
2023-05-09T10:45:31.437Z,25.11
2023-05-09T10:46:31.440Z,24.68
2023-05-09T10:47:31.387Z,24.60
2023-05-09T10:48:31.432Z,24.45
2023-05-09T10:49:31.376Z,24.20
2023-05-09T10:50:31.376Z,23.95
2023-05-09T10:51:31.328Z,24.17
2023-05-09T10:52:31.329Z,24.43
2023-05-09T10:53:31.320Z,25.18
2023-05-09T10:54:31.356Z,25.95
2023-05-09T10:55:31.345Z,26.26
2023-05-09T10:56:31.291Z,25.44
2023-05-09T10:57:31.292Z,24.21
2023-05-09T10:58:31.306Z,23.66
2023-05-09T10:59:31.291Z,23.20
2023-05-09T11:00:31.284Z,23.10
2023-05-09T11:01:31.246Z,22.70
2023-05-09T11:02:31.400Z,22.45
2023-05-09T11:03:31.321Z,22.53
2023-05-09T11:04:31.232Z,22.47
2023-05-09T11:05:31.297Z,22.51
2023-05-09T11:06:31.195Z,22.63
2023-05-09T11:07:31.168Z,22.80
2023-05-09T11:08:31.170Z,22.91
2023-05-09T11:09:31.181Z,22.99
2023-05-09T11:10:31.155Z,23.21
2023-05-09T11:11:31.129Z,23.17
2023-05-09T11:12:31.131Z,23.21
2023-05-09T11:13:31.201Z,23.18
2023-05-09T11:14:31.122Z,23.41
2023-05-09T11:15:31.077Z,23.62
2023-05-09T11:16:31.123Z,23.87
2023-05-09T11:17:31.164Z,23.71
2023-05-09T11:18:31.068Z,23.61
2023-05-09T11:19:31.033Z,23.36
2023-05-09T11:20:31.035Z,23.23
2023-05-09T11:21:31.022Z,23.06
2023-05-09T11:22:31.026Z,22.84
2023-05-09T11:23:31.000Z,22.87
2023-05-09T11:24:30.990Z,22.83
2023-05-09T11:25:30.969Z,22.93
2023-05-09T11:26:30.977Z,23.37
2023-05-09T11:27:31.014Z,23.02
2023-05-09T11:28:30.946Z,22.76
2023-05-09T11:29:30.929Z,22.54
2023-05-09T11:30:30.923Z,22.35
2023-05-09T11:31:31.032Z,22.23
2023-05-09T11:32:30.984Z,22.22
2023-05-09T11:33:30.903Z,22.11
2023-05-09T11:34:30.875Z,22.13
2023-05-09T11:35:30.885Z,22.07
2023-05-09T11:36:30.867Z,22.00
2023-05-09T11:37:30.897Z,21.95
2023-05-09T11:38:30.830Z,21.91
2023-05-09T11:39:30.826Z,21.88
2023-05-09T11:40:30.820Z,21.79
2023-05-09T11:41:30.825Z,21.82
2023-05-09T11:42:30.827Z,21.77
2023-05-09T11:43:30.806Z,21.72
2023-05-09T11:44:30.765Z,21.69
2023-05-09T11:45:30.787Z,21.60
2023-05-09T11:46:30.949Z,21.48
2023-05-09T11:47:30.765Z,21.46
2023-05-09T11:48:30.733Z,21.45
2023-05-09T11:49:30.783Z,21.50
2023-05-09T11:50:30.732Z,21.54
2023-05-09T11:51:30.732Z,21.50
2023-05-09T11:52:30.691Z,21.52
2023-05-09T11:53:30.757Z,21.51
2023-05-09T11:54:30.667Z,21.48
2023-05-09T11:55:30.679Z,21.48
2023-05-09T11:56:30.707Z,21.64
2023-05-09T11:57:30.634Z,21.72
2023-05-09T11:58:30.622Z,21.88
2023-05-09T11:59:30.734Z,21.98
2023-05-09T12:00:30.824Z,21.76
2023-05-09T12:01:30.605Z,21.54
2023-05-09T12:02:30.619Z,21.45
2023-05-09T12:03:30.753Z,21.42
2023-05-09T12:04:30.633Z,21.46
2023-05-09T12:05:30.585Z,21.55
2023-05-09T12:06:30.545Z,21.45
2023-05-09T12:07:30.540Z,21.36
2023-05-09T12:08:30.523Z,21.29
2023-05-09T12:09:30.569Z,21.42
2023-05-09T12:10:30.509Z,21.54
2023-05-09T12:11:30.492Z,21.48
2023-05-09T12:12:30.482Z,21.39
2023-05-09T12:13:30.531Z,21.33
2023-05-09T12:14:30.478Z,21.30
2023-05-09T12:15:30.455Z,21.24
2023-05-09T12:16:30.484Z,21.24
2023-05-09T12:17:30.477Z,21.20
2023-05-09T12:18:30.416Z,21.35
2023-05-09T12:19:30.431Z,21.64
2023-05-09T12:20:30.382Z,21.75
2023-05-09T12:21:30.394Z,21.69
2023-05-09T12:22:30.406Z,21.73
2023-05-09T12:23:30.411Z,21.88
2023-05-09T12:24:30.350Z,21.92
2023-05-09T12:25:30.409Z,21.91
2023-05-09T12:26:30.372Z,22.30
2023-05-09T12:27:30.345Z,22.63
2023-05-09T12:28:30.315Z,22.55
2023-05-09T12:29:30.301Z,22.88
2023-05-09T12:30:30.276Z,23.27
2023-05-09T12:31:30.306Z,23.32
2023-05-09T12:32:30.326Z,23.32
2023-05-09T12:33:30.401Z,23.08
2023-05-09T12:34:30.272Z,22.63
2023-05-09T12:35:30.233Z,22.32
2023-05-09T12:36:30.262Z,22.15
2023-05-09T12:37:30.240Z,22.00
2023-05-09T12:38:30.199Z,21.66
2023-05-09T12:39:30.186Z,21.45
2023-05-09T12:40:30.180Z,21.22
2023-05-09T12:41:39.227Z,21.24
2023-05-09T12:42:30.162Z,21.11
2023-05-09T12:43:30.161Z,21.09
2023-05-09T12:44:30.472Z,20.95
2023-05-09T12:45:30.129Z,20.97
2023-05-09T12:46:30.174Z,20.97
2023-05-09T12:47:30.148Z,21.02
2023-05-09T12:48:30.085Z,20.99
2023-05-09T12:49:30.106Z,20.95
2023-05-09T12:50:30.067Z,21.05
2023-05-09T12:51:30.076Z,21.17
2023-05-09T12:52:30.045Z,21.25
2023-05-09T12:53:30.078Z,21.32
2023-05-09T12:54:30.017Z,21.61
2023-05-09T12:55:30.024Z,21.89
2023-05-09T12:56:30.019Z,22.14
2023-05-09T12:57:31.522Z,22.26
2023-05-09T12:58:30.064Z,22.18
2023-05-09T12:59:29.976Z,22.13
2023-05-09T13:00:29.979Z,22.29
2023-05-09T13:01:30.098Z,22.51
2023-05-09T13:02:30.115Z,22.50
2023-05-09T13:03:29.982Z,22.39